Berriozar, Spain
Current Conditions -  °F | °C
As of 8:00 PM on Monday 20 Oct 2014 (Local Time) from LEPP Reporting Station
Clear Clear  
Wind Chill: 68°   Ceiling: Unl
Heat Index: 68°   Visibility: 6mi
Dew Point: 55°   Wind: 1mph
Humidity: 64%   Direction: NA
Pressure: 30.18"   Gusts: NA
Location:  42.83°N, 1.67°W
Report Text: LEPP 201800Z VRB01KT CAVOK 20/13 Q1022
Loading
Personal Weather Stations






























Interactive Weather Map
Tropical Storm Tracking
New forecast layout! Learn more

10-Day Weather Forecast

Advertisements
Track Severe Weather on mobile